sensor_id;sensor_type;location;lat;lon;timestamp;pressure;altitude;pressure_sealevel;temperature;humidity
62789;BME280;66401;42.016;21.454;2023-11-19T00:01:09;98516.88;;;5.45;50.57
62789;BME280;66401;42.016;21.454;2023-11-19T00:03:35;98544.59;;;5.61;49.93
62789;BME280;66401;42.016;21.454;2023-11-19T00:06:01;98518.84;;;5.52;49.93
62789;BME280;66401;42.016;21.454;2023-11-19T00:08:26;98545.22;;;5.63;48.97
62789;BME280;66401;42.016;21.454;2023-11-19T00:10:52;98540.16;;;5.54;49.94
62789;BME280;66401;42.016;21.454;2023-11-19T00:13:18;98551.63;;;5.51;49.65
62789;BME280;66401;42.016;21.454;2023-11-19T00:15:43;98553.94;;;5.62;48.83
62789;BME280;66401;42.016;21.454;2023-11-19T00:18:10;98549.28;;;5.66;49.09
62789;BME280;66401;42.016;21.454;2023-11-19T00:20:35;98570.59;;;5.60;49.45
62789;BME280;66401;42.016;21.454;2023-11-19T00:23:02;98569.56;;;5.53;50.80
62789;BME280;66401;42.016;21.454;2023-11-19T00:25:28;98572.53;;;5.66;49.65
62789;BME280;66401;42.016;21.454;2023-11-19T00:27:54;98587.94;;;5.75;49.67
62789;BME280;66401;42.016;21.454;2023-11-19T00:30:21;98584.19;;;5.70;49.81
62789;BME280;66401;42.016;21.454;2023-11-19T00:32:47;98533.59;;;5.33;50.01
62789;BME280;66401;42.016;21.454;2023-11-19T00:35:12;98589.22;;;5.71;49.82
62789;BME280;66401;42.016;21.454;2023-11-19T00:37:41;98563.06;;;5.49;49.54
62789;BME280;66401;42.016;21.454;2023-11-19T00:40:08;98573.19;;;5.68;49.31
62789;BME280;66401;42.016;21.454;2023-11-19T00:42:35;98582.44;;;5.70;50.65
62789;BME280;66401;42.016;21.454;2023-11-19T00:45:01;98571.19;;;5.54;49.50
62789;BME280;66401;42.016;21.454;2023-11-19T00:47:26;98547.22;;;5.43;49.84
62789;BME280;66401;42.016;21.454;2023-11-19T00:49:52;98541.25;;;5.43;49.32
62789;BME280;66401;42.016;21.454;2023-11-19T00:52:17;98575.88;;;5.32;49.09
62789;BME280;66401;42.016;21.454;2023-11-19T00:54:43;98584.34;;;5.42;49.26
62789;BME280;66401;42.016;21.454;2023-11-19T00:57:09;98587.91;;;5.41;49.79
62789;BME280;66401;42.016;21.454;2023-11-19T00:59:34;98580.97;;;5.24;50.96
62789;BME280;66401;42.016;21.454;2023-11-19T01:02:00;98585.25;;;5.33;50.95
62789;BME280;66401;42.016;21.454;2023-11-19T01:04:34;98587.53;;;5.36;50.41
62789;BME280;66401;42.016;21.454;2023-11-19T01:07:01;98587.59;;;5.44;49.95
62789;BME280;66401;42.016;21.454;2023-11-19T01:09:29;98577.25;;;5.44;51.21
62789;BME280;66401;42.016;21.454;2023-11-19T01:11:55;98589.19;;;5.45;50.29
62789;BME280;66401;42.016;21.454;2023-11-19T01:14:20;98599.75;;;5.52;49.62
62789;BME280;66401;42.016;21.454;2023-11-19T01:16:46;98600.56;;;5.53;49.52
62789;BME280;66401;42.016;21.454;2023-11-19T01:19:11;98595.69;;;5.50;50.19
62789;BME280;66401;42.016;21.454;2023-11-19T01:21:37;98560.00;;;5.27;50.99
62789;BME280;66401;42.016;21.454;2023-11-19T01:24:02;98589.50;;;5.42;50.76
62789;BME280;66401;42.016;21.454;2023-11-19T01:26:29;98587.38;;;5.38;51.01
62789;BME280;66401;42.016;21.454;2023-11-19T01:28:55;98596.59;;;5.40;50.65
62789;BME280;66401;42.016;21.454;2023-11-19T01:31:20;98576.84;;;5.31;50.82
62789;BME280;66401;42.016;21.454;2023-11-19T01:33:45;98588.19;;;5.21;51.08
62789;BME280;66401;42.016;21.454;2023-11-19T01:36:14;98585.84;;;5.27;50.55
62789;BME280;66401;42.016;21.454;2023-11-19T01:38:40;98606.50;;;5.27;51.73
62789;BME280;66401;42.016;21.454;2023-11-19T01:41:06;98613.00;;;5.31;50.30
62789;BME280;66401;42.016;21.454;2023-11-19T01:43:36;98613.69;;;5.15;52.66
62789;BME280;66401;42.016;21.454;2023-11-19T01:46:16;98602.44;;;5.25;51.33
62789;BME280;66401;42.016;21.454;2023-11-19T01:48:46;98598.75;;;5.27;51.52
62789;BME280;66401;42.016;21.454;2023-11-19T01:51:16;98606.00;;;5.06;53.34
62789;BME280;66401;42.016;21.454;2023-11-19T01:53:43;98589.63;;;5.15;51.50
62789;BME280;66401;42.016;21.454;2023-11-19T01:56:11;98610.03;;;5.26;51.30
62789;BME280;66401;42.016;21.454;2023-11-19T01:58:37;98599.66;;;5.18;52.24
62789;BME280;66401;42.016;21.454;2023-11-19T02:01:05;98614.63;;;5.32;52.46
62789;BME280;66401;42.016;21.454;2023-11-19T02:03:34;98607.47;;;5.26;51.88
62789;BME280;66401;42.016;21.454;2023-11-19T02:06:00;98632.03;;;5.30;52.00
62789;BME280;66401;42.016;21.454;2023-11-19T02:08:26;98619.16;;;5.38;53.20
62789;BME280;66401;42.016;21.454;2023-11-19T02:10:52;98620.50;;;5.42;52.61
62789;BME280;66401;42.016;21.454;2023-11-19T02:13:18;98610.13;;;5.34;53.52
62789;BME280;66401;42.016;21.454;2023-11-19T02:15:44;98624.19;;;5.40;53.72
62789;BME280;66401;42.016;21.454;2023-11-19T02:18:23;98626.56;;;5.51;50.79
62789;BME280;66401;42.016;21.454;2023-11-19T02:20:56;98622.84;;;5.54;50.05
62789;BME280;66401;42.016;21.454;2023-11-19T02:23:22;98610.69;;;5.46;51.47
62789;BME280;66401;42.016;21.454;2023-11-19T02:28:18;98622.84;;;5.54;50.68
62789;BME280;66401;42.016;21.454;2023-11-19T02:30:44;98627.38;;;5.52;50.18
62789;BME280;66401;42.016;21.454;2023-11-19T02:33:10;98615.25;;;5.52;51.34
62789;BME280;66401;42.016;21.454;2023-11-19T02:35:35;98570.00;;;5.22;51.60
62789;BME280;66401;42.016;21.454;2023-11-19T02:38:01;98590.91;;;5.37;52.18
62789;BME280;66401;42.016;21.454;2023-11-19T02:40:29;98603.44;;;5.50;52.01
62789;BME280;66401;42.016;21.454;2023-11-19T02:42:55;98632.31;;;5.45;51.65
62789;BME280;66401;42.016;21.454;2023-11-19T02:45:25;98635.13;;;5.52;52.80
62789;BME280;66401;42.016;21.454;2023-11-19T02:47:51;98628.19;;;5.34;51.50
62789;BME280;66401;42.016;21.454;2023-11-19T02:50:18;98634.16;;;5.35;53.35
62789;BME280;66401;42.016;21.454;2023-11-19T02:52:51;98628.69;;;5.38;52.70
62789;BME280;66401;42.016;21.454;2023-11-19T02:55:17;98647.97;;;5.43;51.99
62789;BME280;66401;42.016;21.454;2023-11-19T02:57:43;98623.69;;;5.36;53.26
62789;BME280;66401;42.016;21.454;2023-11-19T03:00:31;98623.75;;;5.44;51.74
62789;BME280;66401;42.016;21.454;2023-11-19T03:03:08;98620.28;;;5.36;51.85
62789;BME280;66401;42.016;21.454;2023-11-19T03:05:47;98627.69;;;5.31;51.99
62789;BME280;66401;42.016;21.454;2023-11-19T03:08:14;98622.06;;;5.35;51.98
62789;BME280;66401;42.016;21.454;2023-11-19T03:10:41;98605.03;;;5.07;51.81
62789;BME280;66401;42.016;21.454;2023-11-19T03:13:11;98635.06;;;5.26;51.50
62789;BME280;66401;42.016;21.454;2023-11-19T03:15:38;98626.72;;;5.14;53.04
62789;BME280;66401;42.016;21.454;2023-11-19T03:18:03;98648.19;;;5.14;51.65
62789;BME280;66401;42.016;21.454;2023-11-19T03:20:29;98627.31;;;5.08;52.49
62789;BME280;66401;42.016;21.454;2023-11-19T03:22:55;98651.44;;;5.16;51.65
62789;BME280;66401;42.016;21.454;2023-11-19T03:25:25;98660.66;;;5.19;51.93
62789;BME280;66401;42.016;21.454;2023-11-19T03:27:51;98635.72;;;4.92;54.07
62789;BME280;66401;42.016;21.454;2023-11-19T03:30:18;98667.88;;;4.98;53.43
62789;BME280;66401;42.016;21.454;2023-11-19T03:32:44;98662.72;;;4.98;52.46
62789;BME280;66401;42.016;21.454;2023-11-19T03:35:09;98662.63;;;4.89;54.09
62789;BME280;66401;42.016;21.454;2023-11-19T03:37:37;98661.09;;;4.97;54.45
62789;BME280;66401;42.016;21.454;2023-11-19T03:40:02;98660.28;;;4.96;53.44
62789;BME280;66401;42.016;21.454;2023-11-19T03:42:29;98669.72;;;4.87;53.73
62789;BME280;66401;42.016;21.454;2023-11-19T03:44:57;98654.94;;;4.80;52.32
62789;BME280;66401;42.016;21.454;2023-11-19T03:47:24;98644.47;;;4.81;53.39
62789;BME280;66401;42.016;21.454;2023-11-19T03:49:50;98669.56;;;4.89;53.86
62789;BME280;66401;42.016;21.454;2023-11-19T03:52:16;98669.31;;;4.82;54.19
62789;BME280;66401;42.016;21.454;2023-11-19T03:54:42;98686.31;;;4.85;53.01
62789;BME280;66401;42.016;21.454;2023-11-19T03:57:08;98687.84;;;4.78;54.52
62789;BME280;66401;42.016;21.454;2023-11-19T03:59:35;98694.25;;;4.74;52.84
62789;BME280;66401;42.016;21.454;2023-11-19T04:02:01;98678.09;;;4.72;54.24
62789;BME280;66401;42.016;21.454;2023-11-19T04:04:28;98676.69;;;4.77;53.73
62789;BME280;66401;42.016;21.454;2023-11-19T04:06:54;98659.00;;;4.65;53.83
62789;BME280;66401;42.016;21.454;2023-11-19T04:09:20;98673.06;;;4.70;52.53
62789;BME280;66401;42.016;21.454;2023-11-19T04:11:45;98671.75;;;4.66;53.59
62789;BME280;66401;42.016;21.454;2023-11-19T04:14:15;98674.59;;;4.63;53.77
62789;BME280;66401;42.016;21.454;2023-11-19T04:16:46;98658.75;;;4.58;53.36
62789;BME280;66401;42.016;21.454;2023-11-19T04:19:12;98665.88;;;4.74;52.66
62789;BME280;66401;42.016;21.454;2023-11-19T04:21:40;98667.63;;;4.73;53.88
62789;BME280;66401;42.016;21.454;2023-11-19T04:24:06;98671.75;;;4.66;54.26
62789;BME280;66401;42.016;21.454;2023-11-19T04:26:32;98675.66;;;4.70;53.64
62789;BME280;66401;42.016;21.454;2023-11-19T04:28:58;98673.66;;;4.64;53.16
62789;BME280;66401;42.016;21.454;2023-11-19T04:31:29;98676.25;;;4.64;54.06
62789;BME280;66401;42.016;21.454;2023-11-19T04:33:54;98675.19;;;4.57;53.75
62789;BME280;66401;42.016;21.454;2023-11-19T04:36:20;98660.00;;;4.54;53.21
62789;BME280;66401;42.016;21.454;2023-11-19T04:38:49;98671.94;;;4.55;53.20
62789;BME280;66401;42.016;21.454;2023-11-19T04:41:15;98660.56;;;4.48;53.46
62789;BME280;66401;42.016;21.454;2023-11-19T04:43:40;98671.19;;;4.45;52.54
62789;BME280;66401;42.016;21.454;2023-11-19T04:46:06;98659.22;;;4.44;53.47
62789;BME280;66401;42.016;21.454;2023-11-19T04:48:31;98646.38;;;4.34;53.59
62789;BME280;66401;42.016;21.454;2023-11-19T04:50:57;98659.22;;;4.44;54.30
62789;BME280;66401;42.016;21.454;2023-11-19T04:53:22;98657.31;;;4.46;54.14
62789;BME280;66401;42.016;21.454;2023-11-19T04:55:48;98656.06;;;4.50;53.06
62789;BME280;66401;42.016;21.454;2023-11-19T04:58:14;98643.22;;;4.40;54.30
62789;BME280;66401;42.016;21.454;2023-11-19T05:00:39;98631.03;;;4.32;53.65
62789;BME280;66401;42.016;21.454;2023-11-19T05:03:05;98656.94;;;4.41;54.21
62789;BME280;66401;42.016;21.454;2023-11-19T05:05:30;98656.81;;;4.32;53.57
62789;BME280;66401;42.016;21.454;2023-11-19T05:07:56;98676.53;;;4.24;55.92
62789;BME280;66401;42.016;21.454;2023-11-19T05:10:22;98680.47;;;4.28;55.94
62789;BME280;66401;42.016;21.454;2023-11-19T05:12:47;98679.38;;;4.30;54.63
62789;BME280;66401;42.016;21.454;2023-11-19T05:15:13;98669.91;;;4.21;55.50
62789;BME280;66401;42.016;21.454;2023-11-19T05:17:39;98681.28;;;4.28;55.16
62789;BME280;66401;42.016;21.454;2023-11-19T05:20:05;98682.59;;;4.32;54.78
62789;BME280;66401;42.016;21.454;2023-11-19T05:22:41;98664.22;;;4.18;55.72
62789;BME280;66401;42.016;21.454;2023-11-19T05:25:07;98663.69;;;4.14;55.43
62789;BME280;66401;42.016;21.454;2023-11-19T05:27:36;98661.50;;;4.19;56.60
62789;BME280;66401;42.016;21.454;2023-11-19T05:30:05;98670.31;;;4.26;55.20
62789;BME280;66401;42.016;21.454;2023-11-19T05:32:33;98681.16;;;4.20;55.34
62789;BME280;66401;42.016;21.454;2023-11-19T05:34:59;98662.06;;;4.13;56.23
62789;BME280;66401;42.016;21.454;2023-11-19T05:37:24;98668.28;;;4.20;56.02
62789;BME280;66401;42.016;21.454;2023-11-19T05:39:50;98672.09;;;4.16;56.91
62789;BME280;66401;42.016;21.454;2023-11-19T05:42:16;98653.91;;;4.18;53.87
62789;BME280;66401;42.016;21.454;2023-11-19T05:44:41;98678.25;;;4.33;54.38
62789;BME280;66401;42.016;21.454;2023-11-19T05:47:07;98687.22;;;4.39;55.65
62789;BME280;66401;42.016;21.454;2023-11-19T05:49:32;98681.66;;;4.34;55.31
62789;BME280;66401;42.016;21.454;2023-11-19T05:51:58;98680.03;;;4.32;55.86
62789;BME280;66401;42.016;21.454;2023-11-19T05:54:24;98673.53;;;4.28;54.67
62789;BME280;66401;42.016;21.454;2023-11-19T05:56:49;98676.66;;;4.32;55.30
62789;BME280;66401;42.016;21.454;2023-11-19T05:59:15;98698.09;;;4.32;54.82
62789;BME280;66401;42.016;21.454;2023-11-19T06:01:43;98688.66;;;4.14;56.04
62789;BME280;66401;42.016;21.454;2023-11-19T06:04:09;98682.09;;;4.29;55.18
62789;BME280;66401;42.016;21.454;2023-11-19T06:06:35;98687.50;;;4.36;56.00
62789;BME280;66401;42.016;21.454;2023-11-19T06:09:01;98703.75;;;4.46;54.04
62789;BME280;66401;42.016;21.454;2023-11-19T06:11:27;98705.28;;;4.66;53.83
62789;BME280;66401;42.016;21.454;2023-11-19T06:13:53;98704.44;;;4.75;54.78
62789;BME280;66401;42.016;21.454;2023-11-19T06:16:19;98701.94;;;4.83;53.16
62789;BME280;66401;42.016;21.454;2023-11-19T06:18:44;98695.56;;;4.78;53.70
62789;BME280;66401;42.016;21.454;2023-11-19T06:21:10;98681.31;;;4.83;54.04
62789;BME280;66401;42.016;21.454;2023-11-19T06:23:36;98684.34;;;4.97;55.26
62789;BME280;66401;42.016;21.454;2023-11-19T06:26:02;98699.59;;;5.08;55.26
62789;BME280;66401;42.016;21.454;2023-11-19T06:28:27;98684.13;;;5.08;54.03
62789;BME280;66401;42.016;21.454;2023-11-19T06:30:53;98697.84;;;5.26;53.33
62789;BME280;66401;42.016;21.454;2023-11-19T06:33:18;98700.72;;;5.05;53.02
62789;BME280;66401;42.016;21.454;2023-11-19T06:35:44;98700.03;;;4.85;54.33
62789;BME280;66401;42.016;21.454;2023-11-19T06:38:10;98688.34;;;4.81;52.75
62789;BME280;66401;42.016;21.454;2023-11-19T06:40:36;98697.25;;;4.97;53.85
62789;BME280;66401;42.016;21.454;2023-11-19T06:43:01;98699.38;;;5.19;52.30
62789;BME280;66401;42.016;21.454;2023-11-19T06:45:28;98711.59;;;5.44;52.69
62789;BME280;66401;42.016;21.454;2023-11-19T06:47:54;98699.78;;;5.60;51.99
62789;BME280;66401;42.016;21.454;2023-11-19T06:50:19;98700.66;;;5.51;51.17
62789;BME280;66401;42.016;21.454;2023-11-19T06:52:45;98685.59;;;5.64;51.38
62789;BME280;66401;42.016;21.454;2023-11-19T06:55:11;98704.25;;;5.58;50.80
62789;BME280;66401;42.016;21.454;2023-11-19T06:57:37;98691.72;;;5.63;50.21
62789;BME280;66401;42.016;21.454;2023-11-19T07:00:03;98693.41;;;5.72;50.46
62789;BME280;66401;42.016;21.454;2023-11-19T07:02:31;98691.84;;;5.79;49.79
62789;BME280;66401;42.016;21.454;2023-11-19T07:04:56;98700.91;;;6.01;50.16
62789;BME280;66401;42.016;21.454;2023-11-19T07:07:22;98700.44;;;6.06;49.63
62789;BME280;66401;42.016;21.454;2023-11-19T07:09:48;98704.84;;;6.13;49.62
62789;BME280;66401;42.016;21.454;2023-11-19T07:12:13;98679.38;;;6.26;49.13
62789;BME280;66401;42.016;21.454;2023-11-19T07:14:40;98690.97;;;6.48;49.56
62789;BME280;66401;42.016;21.454;2023-11-19T07:17:05;98690.63;;;6.94;48.65
62789;BME280;66401;42.016;21.454;2023-11-19T07:19:31;98694.59;;;7.71;47.04
62789;BME280;66401;42.016;21.454;2023-11-19T07:21:57;98703.88;;;8.62;44.68
62789;BME280;66401;42.016;21.454;2023-11-19T07:24:22;98699.59;;;9.77;42.77
62789;BME280;66401;42.016;21.454;2023-11-19T07:26:48;98707.19;;;11.26;38.83
62789;BME280;66401;42.016;21.454;2023-11-19T07:29:14;98701.16;;;12.45;37.09
62789;BME280;66401;42.016;21.454;2023-11-19T07:31:40;98705.97;;;13.90;35.06
62789;BME280;66401;42.016;21.454;2023-11-19T07:34:05;98705.75;;;13.85;33.35
62789;BME280;66401;42.016;21.454;2023-11-19T07:36:32;98693.94;;;16.00;31.46
62789;BME280;66401;42.016;21.454;2023-11-19T07:38:58;98696.34;;;16.63;30.03
62789;BME280;66401;42.016;21.454;2023-11-19T07:41:24;98699.06;;;15.00;31.05
62789;BME280;66401;42.016;21.454;2023-11-19T07:43:51;98701.38;;;17.31;28.09
62789;BME280;66401;42.016;21.454;2023-11-19T07:46:17;98705.72;;;17.67;27.23
62789;BME280;66401;42.016;21.454;2023-11-19T07:48:46;98704.97;;;17.90;28.29
62789;BME280;66401;42.016;21.454;2023-11-19T07:51:15;98700.53;;;18.78;26.47
62789;BME280;66401;42.016;21.454;2023-11-19T07:53:41;98691.97;;;18.47;26.54
62789;BME280;66401;42.016;21.454;2023-11-19T07:56:07;98691.38;;;20.60;23.74
62789;BME280;66401;42.016;21.454;2023-11-19T07:58:34;98717.84;;;21.58;22.50
62789;BME280;66401;42.016;21.454;2023-11-19T08:01:00;98717.00;;;20.76;23.18
62789;BME280;66401;42.016;21.454;2023-11-19T08:03:27;98700.19;;;21.36;23.49
62789;BME280;66401;42.016;21.454;2023-11-19T08:05:55;98699.09;;;21.10;23.30
62789;BME280;66401;42.016;21.454;2023-11-19T08:08:22;98706.28;;;23.06;21.11
62789;BME280;66401;42.016;21.454;2023-11-19T08:10:47;98693.38;;;23.60;19.79
62789;BME280;66401;42.016;21.454;2023-11-19T08:13:13;98700.94;;;19.89;23.58
62789;BME280;66401;42.016;21.454;2023-11-19T08:15:38;98690.31;;;17.41;25.26
62789;BME280;66401;42.016;21.454;2023-11-19T08:18:05;98702.97;;;16.72;26.05
62789;BME280;66401;42.016;21.454;2023-11-19T08:20:31;98697.16;;;20.57;22.18
62789;BME280;66401;42.016;21.454;2023-11-19T08:22:56;98699.97;;;20.12;23.75
62789;BME280;66401;42.016;21.454;2023-11-19T08:25:22;98699.13;;;21.69;22.29
62789;BME280;66401;42.016;21.454;2023-11-19T08:27:47;98706.09;;;21.49;22.60
62789;BME280;66401;42.016;21.454;2023-11-19T08:30:13;98715.66;;;19.85;23.59
62789;BME280;66401;42.016;21.454;2023-11-19T08:32:39;98716.75;;;22.70;22.90
62789;BME280;66401;42.016;21.454;2023-11-19T08:35:04;98728.00;;;25.40;19.09
62789;BME280;66401;42.016;21.454;2023-11-19T08:37:30;98713.06;;;23.75;20.29
62789;BME280;66401;42.016;21.454;2023-11-19T08:39:56;98726.28;;;23.39;20.40
62789;BME280;66401;42.016;21.454;2023-11-19T08:42:22;98735.91;;;23.60;19.46
62789;BME280;66401;42.016;21.454;2023-11-19T08:44:50;98720.31;;;25.68;17.58
62789;BME280;66401;42.016;21.454;2023-11-19T08:47:19;98713.16;;;25.24;18.54
62789;BME280;66401;42.016;21.454;2023-11-19T08:49:48;98725.44;;;23.23;19.88
62789;BME280;66401;42.016;21.454;2023-11-19T08:52:17;98708.22;;;24.12;18.47
62789;BME280;66401;42.016;21.454;2023-11-19T08:54:46;98696.38;;;24.64;18.63
62789;BME280;66401;42.016;21.454;2023-11-19T08:57:14;98689.91;;;26.27;17.04
62789;BME280;66401;42.016;21.454;2023-11-19T08:59:44;98690.16;;;27.35;16.14
62789;BME280;66401;42.016;21.454;2023-11-19T09:02:13;98684.72;;;26.84;16.71
62789;BME280;66401;42.016;21.454;2023-11-19T09:04:39;98667.25;;;26.48;16.67
62789;BME280;66401;42.016;21.454;2023-11-19T09:07:07;98682.53;;;25.90;16.80
62789;BME280;66401;42.016;21.454;2023-11-19T09:09:35;98685.38;;;26.94;15.99
62789;BME280;66401;42.016;21.454;2023-11-19T09:12:04;98673.94;;;27.13;15.58
62789;BME280;66401;42.016;21.454;2023-11-19T09:14:31;98665.00;;;26.98;16.16
62789;BME280;66401;42.016;21.454;2023-11-19T09:16:57;98668.75;;;26.78;16.53
62789;BME280;66401;42.016;21.454;2023-11-19T09:19:23;98667.28;;;26.67;16.21
62789;BME280;66401;42.016;21.454;2023-11-19T09:21:49;98664.72;;;26.09;16.92
62789;BME280;66401;42.016;21.454;2023-11-19T09:24:15;98652.88;;;24.84;18.07
62789;BME280;66401;42.016;21.454;2023-11-19T09:26:40;98655.19;;;26.27;16.17
62789;BME280;66401;42.016;21.454;2023-11-19T09:29:09;98608.13;;;21.59;18.62
62789;BME280;66401;42.016;21.454;2023-11-19T09:31:37;98629.97;;;22.81;19.65
62789;BME280;66401;42.016;21.454;2023-11-19T09:34:03;98630.84;;;24.68;18.18
62789;BME280;66401;42.016;21.454;2023-11-19T09:36:28;98627.75;;;25.39;17.68
62789;BME280;66401;42.016;21.454;2023-11-19T09:38:54;98623.25;;;25.64;16.89
62789;BME280;66401;42.016;21.454;2023-11-19T09:41:19;98635.38;;;26.95;15.72
62789;BME280;66401;42.016;21.454;2023-11-19T09:43:46;98619.25;;;27.70;15.69
62789;BME280;66401;42.016;21.454;2023-11-19T09:46:16;98598.66;;;22.93;18.99
62789;BME280;66401;42.016;21.454;2023-11-19T09:48:42;98578.66;;;21.92;20.09
62789;BME280;66401;42.016;21.454;2023-11-19T09:51:09;98588.81;;;19.85;22.10
62789;BME280;66401;42.016;21.454;2023-11-19T09:53:36;98583.84;;;20.10;22.26
62789;BME280;66401;42.016;21.454;2023-11-19T09:56:02;98575.66;;;21.41;21.20
62789;BME280;66401;42.016;21.454;2023-11-19T09:58:32;98574.41;;;19.08;23.12
62789;BME280;66401;42.016;21.454;2023-11-19T10:00:58;98577.94;;;19.64;22.11
62789;BME280;66401;42.016;21.454;2023-11-19T10:03:25;98564.16;;;19.79;21.73
62789;BME280;66401;42.016;21.454;2023-11-19T10:05:51;98568.34;;;19.58;22.50
62789;BME280;66401;42.016;21.454;2023-11-19T10:08:16;98563.28;;;18.21;24.33
62789;BME280;66401;42.016;21.454;2023-11-19T10:10:42;98565.63;;;17.59;25.26
62789;BME280;66401;42.016;21.454;2023-11-19T10:13:08;98555.16;;;18.79;24.03
62789;BME280;66401;42.016;21.454;2023-11-19T10:15:37;98558.28;;;18.48;24.25
62789;BME280;66401;42.016;21.454;2023-11-19T10:18:03;98554.41;;;17.52;24.91
62789;BME280;66401;42.016;21.454;2023-11-19T10:20:40;98550.09;;;19.40;22.55
62789;BME280;66401;42.016;21.454;2023-11-19T10:23:06;98554.88;;;21.23;20.36
62789;BME280;66401;42.016;21.454;2023-11-19T10:25:33;98547.38;;;19.01;22.41
62789;BME280;66401;42.016;21.454;2023-11-19T10:27:59;98551.69;;;19.41;22.70
62789;BME280;66401;42.016;21.454;2023-11-19T10:30:29;98544.69;;;20.78;20.92
62789;BME280;66401;42.016;21.454;2023-11-19T10:35:31;98532.69;;;20.70;20.38
62789;BME280;66401;42.016;21.454;2023-11-19T10:37:59;98520.53;;;18.19;23.58
62789;BME280;66401;42.016;21.454;2023-11-19T10:40:37;98528.59;;;18.00;24.45
62789;BME280;66401;42.016;21.454;2023-11-19T10:43:03;98506.72;;;21.31;21.12
62789;BME280;66401;42.016;21.454;2023-11-19T10:45:29;98516.28;;;23.34;19.17
62789;BME280;66401;42.016;21.454;2023-11-19T10:47:55;98509.44;;;19.07;21.98
62789;BME280;66401;42.016;21.454;2023-11-19T10:50:22;98506.88;;;17.82;23.51
62789;BME280;66401;42.016;21.454;2023-11-19T10:52:52;98498.13;;;18.33;23.20
62789;BME280;66401;42.016;21.454;2023-11-19T10:55:24;98479.69;;;16.04;25.61
62789;BME280;66401;42.016;21.454;2023-11-19T10:57:52;98507.34;;;17.32;25.14
62789;BME280;66401;42.016;21.454;2023-11-19T11:00:19;98517.44;;;17.70;24.78
62789;BME280;66401;42.016;21.454;2023-11-19T11:02:50;98507.91;;;17.45;24.44
62789;BME280;66401;42.016;21.454;2023-11-19T11:05:19;98515.88;;;18.38;23.42
62789;BME280;66401;42.016;21.454;2023-11-19T11:07:48;98516.84;;;17.09;24.98
62789;BME280;66401;42.016;21.454;2023-11-19T11:10:16;98501.50;;;17.88;24.53
62789;BME280;66401;42.016;21.454;2023-11-19T11:12:43;98496.66;;;14.40;28.05
62789;BME280;66401;42.016;21.454;2023-11-19T11:15:10;98486.56;;;16.05;26.57
62789;BME280;66401;42.016;21.454;2023-11-19T11:17:39;98476.63;;;15.52;26.66
62789;BME280;66401;42.016;21.454;2023-11-19T11:20:05;98493.28;;;17.26;24.66
62789;BME280;66401;42.016;21.454;2023-11-19T11:22:44;98491.06;;;16.16;26.26
62789;BME280;66401;42.016;21.454;2023-11-19T11:25:45;98480.09;;;15.03;27.78
62789;BME280;66401;42.016;21.454;2023-11-19T11:28:22;98494.03;;;15.28;26.61
62789;BME280;66401;42.016;21.454;2023-11-19T11:36:59;98484.41;;;14.34;29.57
62789;BME280;66401;42.016;21.454;2023-11-19T11:39:29;98485.16;;;13.05;30.86
62789;BME280;66401;42.016;21.454;2023-11-19T11:45:06;98478.94;;;12.86;31.67
62789;BME280;66401;42.016;21.454;2023-11-19T11:50:19;98471.53;;;15.57;27.98
62789;BME280;66401;42.016;21.454;2023-11-19T11:55:51;98460.31;;;14.19;29.94
62789;BME280;66401;42.016;21.454;2023-11-19T11:58:21;98455.28;;;14.80;29.14
62789;BME280;66401;42.016;21.454;2023-11-19T12:00:48;98448.94;;;13.35;31.62
62789;BME280;66401;42.016;21.454;2023-11-19T12:03:14;98445.78;;;14.23;31.34
62789;BME280;66401;42.016;21.454;2023-11-19T12:05:45;98446.88;;;15.58;28.76
62789;BME280;66401;42.016;21.454;2023-11-19T12:08:12;98448.66;;;15.64;28.67
62789;BME280;66401;42.016;21.454;2023-11-19T12:10:47;98444.84;;;15.60;29.71
62789;BME280;66401;42.016;21.454;2023-11-19T12:13:14;98448.66;;;17.31;27.52
62789;BME280;66401;42.016;21.454;2023-11-19T12:18:24;98440.50;;;17.44;26.26
62789;BME280;66401;42.016;21.454;2023-11-19T12:20:51;98447.94;;;17.24;26.05
62789;BME280;66401;42.016;21.454;2023-11-19T12:23:17;98428.31;;;18.52;25.83
62789;BME280;66401;42.016;21.454;2023-11-19T12:25:42;98409.34;;;18.84;24.74
62789;BME280;66401;42.016;21.454;2023-11-19T12:28:14;98426.06;;;20.43;23.07
62789;BME280;66401;42.016;21.454;2023-11-19T12:30:42;98427.09;;;17.46;24.90
62789;BME280;66401;42.016;21.454;2023-11-19T12:33:12;98412.16;;;17.11;26.31
62789;BME280;66401;42.016;21.454;2023-11-19T12:35:46;98406.91;;;18.03;25.41
62789;BME280;66401;42.016;21.454;2023-11-19T12:38:25;98397.28;;;16.70;26.14
62789;BME280;66401;42.016;21.454;2023-11-19T12:41:08;98406.03;;;17.98;25.49
62789;BME280;66401;42.016;21.454;2023-11-19T12:43:35;98405.41;;;18.08;25.54
62789;BME280;66401;42.016;21.454;2023-11-19T12:46:21;98412.53;;;18.86;24.48
62789;BME280;66401;42.016;21.454;2023-11-19T12:48:48;98404.44;;;19.31;23.73
62789;BME280;66401;42.016;21.454;2023-11-19T12:51:13;98398.59;;;17.43;26.18
62789;BME280;66401;42.016;21.454;2023-11-19T12:53:50;98384.59;;;16.91;26.62
62789;BME280;66401;42.016;21.454;2023-11-19T12:56:17;98399.78;;;16.77;27.22
62789;BME280;66401;42.016;21.454;2023-11-19T12:58:43;98401.47;;;18.89;25.93
62789;BME280;66401;42.016;21.454;2023-11-19T13:01:09;98405.75;;;19.72;24.01
62789;BME280;66401;42.016;21.454;2023-11-19T13:03:38;98410.34;;;20.36;23.60
62789;BME280;66401;42.016;21.454;2023-11-19T13:06:10;98412.19;;;18.99;23.86
62789;BME280;66401;42.016;21.454;2023-11-19T13:08:47;98405.03;;;20.04;24.13
62789;BME280;66401;42.016;21.454;2023-11-19T13:11:34;98389.72;;;20.06;22.83
62789;BME280;66401;42.016;21.454;2023-11-19T13:16:27;98386.56;;;19.16;24.25
62789;BME280;66401;42.016;21.454;2023-11-19T13:18:53;98382.06;;;16.72;26.19
62789;BME280;66401;42.016;21.454;2023-11-19T13:21:19;98381.78;;;17.32;26.04